createdAt,value
2022-08-26T00:00:53.320Z,19.80
2022-08-26T00:03:21.627Z,19.80
2022-08-26T00:05:50.997Z,19.80
2022-08-26T00:08:21.135Z,19.70
2022-08-26T00:10:49.553Z,19.60
2022-08-26T00:13:19.512Z,19.60
2022-08-26T00:15:51.161Z,19.50
2022-08-26T00:18:22.313Z,19.40
2022-08-26T00:20:51.491Z,19.40
2022-08-26T00:23:20.376Z,19.30
2022-08-26T00:25:54.806Z,19.40
2022-08-26T00:28:25.460Z,19.30
2022-08-26T00:30:55.372Z,19.30
2022-08-26T00:33:24.145Z,19.40
2022-08-26T00:35:52.237Z,19.40
2022-08-26T00:38:22.232Z,19.50
2022-08-26T00:40:53.716Z,19.50
2022-08-26T00:43:23.311Z,19.50
2022-08-26T00:45:59.133Z,19.40
2022-08-26T00:48:31.940Z,19.40
2022-08-26T00:51:04.019Z,19.40
2022-08-26T00:53:38.016Z,19.40
2022-08-26T00:56:14.852Z,19.30
2022-08-26T00:58:45.336Z,19.30
2022-08-26T01:01:15.526Z,19.20
2022-08-26T01:03:45.584Z,19.20
2022-08-26T01:06:14.549Z,19.20
2022-08-26T01:08:42.955Z,19.20
2022-08-26T01:11:12.465Z,19.20
2022-08-26T01:13:43.401Z,19.20
2022-08-26T01:16:16.180Z,19.20
2022-08-26T01:18:46.773Z,19.30
2022-08-26T01:21:19.026Z,19.20
2022-08-26T01:23:57.301Z,19.20
2022-08-26T01:26:30.715Z,19.10
2022-08-26T01:29:01.329Z,19.10
2022-08-26T01:31:33.698Z,19.10
2022-08-26T01:34:06.777Z,19.00
2022-08-26T01:36:40.720Z,19.00
2022-08-26T01:39:11.728Z,19.00
2022-08-26T01:41:44.152Z,19.00
2022-08-26T01:44:20.779Z,18.90
2022-08-26T01:46:51.490Z,18.80
2022-08-26T01:49:20.524Z,18.80
2022-08-26T01:51:51.439Z,18.70
2022-08-26T01:54:23.112Z,18.70
2022-08-26T01:56:52.543Z,18.70
2022-08-26T01:59:25.188Z,18.70
2022-08-26T02:01:54.263Z,18.70
2022-08-26T02:04:27.104Z,18.60
2022-08-26T02:06:56.835Z,18.50
2022-08-26T02:09:26.844Z,18.40
2022-08-26T02:11:55.883Z,18.30
2022-08-26T02:14:27.206Z,18.30
2022-08-26T02:16:56.250Z,18.30
2022-08-26T02:19:30.492Z,18.30
2022-08-26T02:22:01.355Z,18.30
2022-08-26T02:24:49.019Z,18.30
2022-08-26T02:27:19.383Z,18.20
2022-08-26T02:29:52.015Z,18.10
2022-08-26T02:32:20.411Z,18.10
2022-08-26T02:34:48.479Z,18.00
2022-08-26T02:37:17.742Z,18.00
2022-08-26T02:39:48.026Z,18.00
2022-08-26T02:42:16.178Z,18.00
2022-08-26T02:44:44.267Z,17.90
2022-08-26T02:47:14.735Z,17.90
2022-08-26T02:49:44.350Z,17.90
2022-08-26T02:52:17.922Z,17.80
2022-08-26T02:54:47.571Z,17.80
2022-08-26T02:57:17.991Z,17.80
2022-08-26T02:59:46.141Z,17.80
2022-08-26T03:02:17.322Z,17.90
2022-08-26T03:04:57.787Z,17.90
2022-08-26T03:07:30.272Z,17.90
2022-08-26T03:10:01.757Z,18.00
2022-08-26T03:12:37.246Z,18.00
2022-08-26T03:15:16.487Z,18.00
2022-08-26T03:17:46.710Z,18.00
2022-08-26T03:20:15.771Z,18.00
2022-08-26T03:22:46.535Z,18.00
2022-08-26T03:25:17.622Z,18.00
2022-08-26T03:27:45.858Z,18.00
2022-08-26T03:30:32.873Z,17.90
2022-08-26T03:33:01.640Z,18.00
2022-08-26T03:35:31.191Z,18.00
2022-08-26T03:37:59.773Z,18.00
2022-08-26T03:40:33.723Z,18.00
2022-08-26T03:43:02.412Z,18.00
2022-08-26T03:45:30.517Z,17.90
2022-08-26T03:47:58.617Z,17.90
2022-08-26T03:50:27.039Z,17.80
2022-08-26T03:52:56.199Z,17.80
2022-08-26T03:55:27.014Z,17.90
2022-08-26T03:57:56.787Z,17.90
2022-08-26T04:00:26.011Z,18.00
2022-08-26T04:02:54.240Z,18.00
2022-08-26T04:05:23.398Z,18.00
2022-08-26T04:07:51.805Z,18.00
2022-08-26T04:10:28.601Z,18.00
2022-08-26T04:12:59.218Z,18.00
2022-08-26T04:15:28.179Z,17.90
2022-08-26T04:17:57.298Z,17.90
2022-08-26T04:20:26.132Z,17.90
2022-08-26T04:22:54.591Z,17.90
2022-08-26T04:25:22.695Z,17.90
2022-08-26T04:27:52.764Z,17.80
2022-08-26T04:30:22.789Z,17.80
2022-08-26T04:32:52.121Z,17.80
2022-08-26T04:35:25.633Z,17.80
2022-08-26T04:37:55.286Z,17.80
2022-08-26T04:40:24.147Z,17.90
2022-08-26T04:42:56.744Z,17.90
2022-08-26T04:45:27.300Z,18.00
2022-08-26T04:47:56.830Z,18.00
2022-08-26T04:50:26.933Z,18.10
2022-08-26T04:52:55.589Z,18.10
2022-08-26T04:55:28.288Z,18.20
2022-08-26T04:58:08.756Z,18.20
2022-08-26T05:00:40.317Z,18.30
2022-08-26T05:03:10.399Z,18.40
2022-08-26T05:05:41.157Z,18.50
2022-08-26T05:08:10.022Z,18.60
2022-08-26T05:10:44.358Z,18.70
2022-08-26T05:13:15.602Z,18.80
2022-08-26T05:15:46.157Z,18.80
2022-08-26T05:18:20.002Z,18.90
2022-08-26T05:20:51.314Z,19.00
2022-08-26T05:23:23.500Z,19.10
2022-08-26T05:25:58.389Z,19.20
2022-08-26T05:28:31.252Z,19.20
2022-08-26T05:31:01.543Z,19.30
2022-08-26T05:33:32.041Z,19.40
2022-08-26T05:36:06.798Z,19.40
2022-08-26T05:38:35.258Z,19.50
2022-08-26T05:41:03.637Z,19.60
2022-08-26T05:43:31.793Z,19.80
2022-08-26T05:46:07.903Z,19.90
2022-08-26T05:48:39.109Z,20.00
2022-08-26T05:51:13.104Z,20.20
2022-08-26T05:53:54.478Z,20.20
2022-08-26T05:56:27.574Z,20.30
2022-08-26T05:58:58.578Z,20.30
2022-08-26T06:01:31.850Z,20.30
2022-08-26T06:04:04.579Z,20.50
2022-08-26T06:06:35.723Z,20.60
2022-08-26T06:09:07.098Z,20.60
2022-08-26T06:11:40.175Z,20.70
2022-08-26T06:14:09.043Z,20.70
2022-08-26T06:16:41.194Z,20.90
2022-08-26T06:19:11.763Z,20.90
2022-08-26T06:21:43.607Z,21.00
2022-08-26T06:24:32.485Z,21.10
2022-08-26T06:27:02.746Z,21.10
2022-08-26T06:29:33.022Z,21.20
2022-08-26T06:32:04.017Z,21.30
2022-08-26T06:34:32.677Z,21.30
2022-08-26T06:37:03.483Z,21.40
2022-08-26T06:39:32.292Z,21.50
2022-08-26T06:42:00.862Z,21.50
2022-08-26T06:44:34.796Z,21.40
2022-08-26T06:47:04.370Z,21.40
2022-08-26T06:49:32.664Z,21.20
2022-08-26T06:52:00.691Z,21.20
2022-08-26T06:54:31.717Z,21.10
2022-08-26T06:57:00.100Z,21.20
2022-08-26T06:59:28.330Z,21.30
2022-08-26T07:01:56.543Z,21.40
2022-08-26T07:04:28.856Z,21.50
2022-08-26T07:06:57.610Z,21.60
2022-08-26T07:09:27.778Z,21.60
2022-08-26T07:11:57.401Z,21.70
2022-08-26T07:14:26.191Z,21.70
2022-08-26T07:16:55.669Z,21.80
2022-08-26T07:19:29.825Z,21.80
2022-08-26T07:22:01.755Z,22.00
2022-08-26T07:24:31.105Z,22.20
2022-08-26T07:27:01.951Z,22.40
2022-08-26T07:29:33.506Z,22.50
2022-08-26T07:32:02.708Z,22.60
2022-08-26T07:34:33.411Z,22.70
2022-08-26T07:37:02.185Z,22.70
2022-08-26T07:39:31.421Z,22.60
2022-08-26T07:42:00.338Z,22.60
2022-08-26T07:44:30.344Z,22.50
2022-08-26T07:46:59.430Z,22.60
2022-08-26T07:49:28.171Z,22.60
2022-08-26T07:51:57.701Z,22.70
2022-08-26T07:54:27.107Z,22.90
2022-08-26T07:56:56.336Z,23.00
2022-08-26T07:59:25.027Z,23.10
2022-08-26T08:01:53.939Z,23.30
2022-08-26T08:04:26.080Z,23.60
2022-08-26T08:06:55.528Z,23.80
2022-08-26T08:09:25.569Z,24.00
2022-08-26T08:11:54.285Z,24.20
2022-08-26T08:14:22.509Z,24.40
2022-08-26T08:16:54.855Z,24.40
2022-08-26T08:19:23.947Z,24.50
2022-08-26T08:22:01.179Z,24.70
2022-08-26T08:24:32.166Z,24.90
2022-08-26T08:27:00.875Z,25.10
2022-08-26T08:29:30.563Z,25.30
2022-08-26T08:32:00.224Z,25.60
2022-08-26T08:34:30.015Z,25.70
2022-08-26T08:36:58.749Z,25.80
2022-08-26T08:39:28.247Z,25.90
2022-08-26T08:42:27.918Z,26.00
2022-08-26T08:45:00.333Z,26.10
2022-08-26T08:47:33.844Z,26.40
2022-08-26T08:50:13.007Z,26.50
2022-08-26T08:52:44.630Z,26.60
2022-08-26T08:55:18.248Z,26.70
2022-08-26T08:58:01.996Z,26.80
2022-08-26T09:00:39.793Z,26.80
2022-08-26T09:03:19.948Z,27.00
2022-08-26T09:05:51.551Z,27.20
2022-08-26T09:08:27.493Z,27.30
2022-08-26T09:10:59.554Z,27.40
2022-08-26T09:13:31.819Z,27.50
2022-08-26T09:16:08.317Z,27.50
2022-08-26T09:18:56.577Z,27.50
2022-08-26T09:21:25.724Z,27.60
2022-08-26T09:23:56.613Z,27.70
2022-08-26T09:26:29.663Z,27.90
2022-08-26T09:29:02.591Z,27.90
2022-08-26T09:31:34.113Z,27.90
2022-08-26T09:34:17.356Z,27.80
2022-08-26T09:36:48.583Z,28.00
2022-08-26T09:39:30.320Z,28.00
2022-08-26T09:42:11.090Z,28.10
2022-08-26T09:44:59.385Z,28.10
2022-08-26T09:47:31.678Z,28.30
2022-08-26T09:50:09.467Z,28.50
2022-08-26T09:52:40.529Z,28.60
2022-08-26T09:55:15.642Z,28.80
2022-08-26T09:57:51.396Z,29.10
2022-08-26T10:00:28.989Z,29.30
2022-08-26T10:02:58.246Z,29.50
2022-08-26T10:05:39.742Z,29.60
2022-08-26T10:08:24.254Z,29.70
2022-08-26T10:10:53.526Z,29.70
2022-08-26T10:13:28.128Z,29.70
2022-08-26T10:16:07.133Z,29.90
2022-08-26T10:18:43.057Z,30.00
2022-08-26T10:21:17.831Z,30.30
2022-08-26T10:23:51.275Z,29.90
2022-08-26T10:26:26.366Z,29.80
2022-08-26T10:29:01.323Z,29.70
2022-08-26T10:31:40.126Z,29.70
2022-08-26T10:34:09.535Z,30.10
2022-08-26T10:37:13.857Z,30.00
2022-08-26T10:39:46.244Z,30.20
2022-08-26T10:42:20.395Z,30.40
2022-08-26T10:44:52.345Z,30.30
2022-08-26T10:47:25.572Z,30.30
2022-08-26T10:49:58.698Z,30.30
2022-08-26T10:52:42.829Z,30.50
2022-08-26T10:55:17.759Z,30.50
2022-08-26T10:57:57.217Z,30.50
2022-08-26T11:00:49.627Z,30.30
2022-08-26T11:03:38.811Z,30.20
2022-08-26T11:06:24.627Z,30.30
2022-08-26T11:08:54.046Z,30.40
2022-08-26T11:11:46.921Z,30.70
2022-08-26T11:14:53.114Z,30.90
2022-08-26T11:17:57.007Z,31.20
2022-08-26T11:20:41.600Z,31.30
2022-08-26T11:23:50.482Z,31.70
2022-08-26T11:26:30.046Z,31.70
2022-08-26T11:29:04.956Z,31.80
2022-08-26T11:31:56.401Z,32.00
2022-08-26T11:34:54.072Z,31.90
2022-08-26T11:37:27.463Z,31.90
2022-08-26T11:39:56.888Z,31.80
2022-08-26T11:42:33.252Z,31.70
2022-08-26T11:45:18.168Z,31.70
2022-08-26T11:47:46.856Z,31.70
2022-08-26T11:50:21.499Z,31.90
2022-08-26T11:53:02.376Z,32.30
2022-08-26T11:55:31.836Z,32.40
2022-08-26T11:58:01.978Z,32.60
2022-08-26T12:00:36.022Z,32.90
2022-08-26T12:03:09.452Z,33.00
2022-08-26T12:05:44.989Z,33.00
2022-08-26T12:08:21.453Z,33.00
2022-08-26T12:11:03.415Z,33.20
2022-08-26T12:13:31.977Z,33.30
2022-08-26T12:16:01.511Z,33.40
2022-08-26T12:18:33.001Z,33.40
2022-08-26T12:21:12.249Z,33.20
2022-08-26T12:23:47.310Z,33.20
2022-08-26T12:26:23.399Z,32.90
2022-08-26T12:28:55.507Z,32.90
2022-08-26T12:31:32.327Z,32.60
2022-08-26T12:34:04.111Z,31.90
2022-08-26T12:36:36.159Z,31.40
2022-08-26T12:39:10.500Z,31.40
2022-08-26T12:41:51.050Z,31.80
2022-08-26T12:44:54.159Z,32.10
2022-08-26T12:47:31.004Z,31.80
2022-08-26T12:50:18.116Z,31.20
2022-08-26T12:52:57.076Z,30.90
2022-08-26T12:55:36.451Z,30.70
2022-08-26T12:58:24.435Z,30.90
2022-08-26T13:00:56.105Z,31.00
2022-08-26T13:03:43.271Z,30.80
2022-08-26T13:06:25.810Z,31.00
2022-08-26T13:08:55.747Z,31.30
2022-08-26T13:11:31.530Z,31.70
2022-08-26T13:14:07.257Z,32.00
2022-08-26T13:16:36.571Z,32.10
2022-08-26T13:19:10.378Z,32.30
2022-08-26T13:21:47.718Z,31.90
2022-08-26T13:24:18.942Z,31.70
2022-08-26T13:26:50.313Z,31.80
2022-08-26T13:29:20.766Z,32.00
2022-08-26T13:31:49.051Z,32.10
2022-08-26T13:34:20.436Z,31.90
2022-08-26T13:36:49.536Z,31.70
2022-08-26T13:39:18.108Z,31.40
2022-08-26T13:41:46.336Z,31.10
2022-08-26T13:44:15.862Z,30.40
2022-08-26T13:49:17.230Z,28.90
2022-08-26T13:51:45.389Z,27.70
2022-08-26T13:54:14.566Z,26.90
2022-08-26T13:56:42.766Z,26.10
2022-08-26T13:59:11.470Z,25.00
2022-08-26T14:01:40.961Z,23.70
2022-08-26T14:04:09.075Z,22.80
2022-08-26T14:06:37.425Z,21.80
2022-08-26T14:09:06.672Z,20.60
2022-08-26T14:11:54.241Z,19.70
2022-08-26T14:14:23.155Z,19.50
2022-08-26T14:17:00.186Z,19.50
2022-08-26T14:19:30.292Z,19.50
2022-08-26T14:21:58.803Z,19.40
2022-08-26T14:24:27.527Z,19.30
2022-08-26T14:26:55.615Z,19.30
2022-08-26T14:29:23.783Z,19.20
2022-08-26T14:31:54.495Z,19.30
2022-08-26T14:34:22.698Z,19.10
2022-08-26T14:36:50.739Z,19.00
2022-08-26T14:39:18.837Z,18.90
2022-08-26T14:41:53.805Z,18.80
2022-08-26T14:44:25.730Z,18.90
2022-08-26T14:46:56.305Z,18.90
2022-08-26T14:49:27.206Z,19.00
2022-08-26T14:51:56.356Z,18.80
2022-08-26T14:54:23.484Z,18.50
2022-08-26T14:56:53.896Z,18.40
2022-08-26T14:59:25.108Z,18.50
2022-08-26T15:01:55.450Z,18.60
2022-08-26T15:04:26.358Z,18.60
2022-08-26T15:06:56.279Z,18.60
2022-08-26T15:09:25.271Z,18.60
2022-08-26T15:11:54.058Z,18.50
2022-08-26T15:14:23.381Z,18.50
2022-08-26T15:16:57.390Z,18.50
2022-08-26T15:19:26.972Z,18.40
2022-08-26T15:21:55.455Z,18.40
2022-08-26T15:24:26.682Z,18.30
2022-08-26T15:26:54.818Z,18.30
2022-08-26T15:29:24.227Z,18.20
2022-08-26T15:31:52.490Z,18.40
2022-08-26T15:34:27.092Z,18.50
2022-08-26T15:36:55.482Z,18.40
2022-08-26T15:39:23.652Z,18.50
2022-08-26T15:41:52.114Z,18.50
2022-08-26T15:44:21.635Z,18.60
2022-08-26T15:46:58.810Z,18.60
2022-08-26T15:49:28.759Z,18.70
2022-08-26T15:51:57.151Z,18.80
2022-08-26T15:54:26.486Z,18.90
2022-08-26T15:56:54.596Z,19.00
2022-08-26T15:59:25.396Z,19.10
2022-08-26T16:01:53.600Z,19.20
2022-08-26T16:04:22.145Z,19.30
2022-08-26T16:06:52.622Z,19.40
2022-08-26T16:09:22.841Z,19.40
2022-08-26T16:11:52.031Z,19.50
2022-08-26T16:14:20.227Z,19.50
2022-08-26T16:16:48.340Z,19.50
2022-08-26T16:19:16.570Z,19.50
2022-08-26T16:21:45.019Z,19.50
2022-08-26T16:24:15.313Z,19.40
2022-08-26T16:26:45.295Z,19.40
2022-08-26T16:29:15.308Z,19.40
2022-08-26T16:31:44.019Z,19.40
2022-08-26T16:34:12.585Z,19.50
2022-08-26T16:36:40.921Z,19.40
2022-08-26T16:39:10.069Z,19.40
2022-08-26T16:41:39.677Z,19.40
2022-08-26T16:44:08.746Z,19.40
2022-08-26T16:46:37.158Z,19.30
2022-08-26T16:49:05.383Z,19.30
2022-08-26T16:51:38.025Z,19.20
2022-08-26T16:54:08.083Z,19.20
2022-08-26T16:56:36.555Z,19.20
2022-08-26T16:59:07.928Z,19.20
2022-08-26T17:01:36.146Z,19.20
2022-08-26T17:04:05.184Z,19.10
2022-08-26T17:06:34.120Z,19.10
2022-08-26T17:09:02.344Z,19.10
2022-08-26T17:11:30.921Z,19.00
2022-08-26T17:13:59.341Z,19.00
2022-08-26T17:16:29.379Z,19.00
2022-08-26T17:18:58.015Z,19.00
2022-08-26T17:21:30.340Z,19.00
2022-08-26T17:23:58.479Z,19.00
2022-08-26T17:26:27.147Z,19.10
2022-08-26T17:28:56.072Z,19.10
2022-08-26T17:31:24.779Z,19.10
2022-08-26T17:33:55.486Z,19.10
2022-08-26T17:36:27.667Z,19.00
2022-08-26T17:38:57.967Z,18.90
2022-08-26T17:41:26.976Z,18.90
2022-08-26T17:43:55.928Z,19.00
2022-08-26T17:46:24.749Z,19.00
2022-08-26T17:48:54.659Z,18.90
2022-08-26T17:51:23.533Z,18.80
2022-08-26T17:53:53.228Z,18.80
2022-08-26T17:56:25.433Z,18.90
2022-08-26T17:58:54.664Z,18.90
2022-08-26T18:01:26.702Z,18.90
2022-08-26T18:04:00.379Z,18.90
2022-08-26T18:06:30.222Z,18.90
2022-08-26T18:08:58.395Z,18.90
2022-08-26T18:11:27.073Z,18.90
2022-08-26T18:13:55.203Z,18.90
2022-08-26T18:16:23.325Z,18.80
2022-08-26T18:18:53.513Z,18.90
2022-08-26T18:21:25.601Z,18.90
2022-08-26T18:23:54.601Z,18.90
2022-08-26T18:26:25.320Z,18.90
2022-08-26T18:28:54.012Z,18.90
2022-08-26T18:31:22.588Z,18.90
2022-08-26T18:33:51.301Z,18.90
2022-08-26T18:36:24.928Z,18.90
2022-08-26T18:38:54.029Z,19.00
2022-08-26T18:41:24.303Z,19.00
2022-08-26T18:43:54.050Z,19.00
2022-08-26T18:46:24.939Z,19.10
2022-08-26T18:48:53.616Z,19.20
2022-08-26T18:51:25.640Z,19.20
2022-08-26T18:53:54.109Z,19.30
2022-08-26T18:56:22.336Z,19.30
2022-08-26T18:58:50.534Z,19.20
2022-08-26T19:01:22.365Z,19.20
2022-08-26T19:03:55.379Z,19.20
2022-08-26T19:06:25.819Z,19.10
2022-08-26T19:08:54.889Z,19.20
2022-08-26T19:11:30.181Z,19.10
2022-08-26T19:14:02.436Z,19.20
2022-08-26T19:16:31.614Z,19.20
2022-08-26T19:19:01.435Z,19.10
2022-08-26T19:21:34.665Z,19.10
2022-08-26T19:24:05.531Z,19.00
2022-08-26T19:26:34.936Z,19.00
2022-08-26T19:29:04.019Z,19.00
2022-08-26T19:31:47.880Z,19.00
2022-08-26T19:34:20.735Z,18.90
2022-08-26T19:36:53.476Z,18.90
2022-08-26T19:39:22.428Z,18.80
2022-08-26T19:41:53.411Z,18.80
2022-08-26T19:44:41.651Z,18.80
2022-08-26T19:47:11.638Z,18.70
2022-08-26T19:49:40.158Z,18.60
2022-08-26T19:52:11.015Z,18.70
2022-08-26T19:54:39.565Z,18.60
2022-08-26T19:57:10.002Z,18.60
2022-08-26T19:59:40.394Z,18.60
2022-08-26T20:02:11.117Z,18.60
2022-08-26T20:04:40.994Z,18.60
2022-08-26T20:07:14.183Z,18.50
2022-08-26T20:09:46.471Z,18.50
2022-08-26T20:12:15.373Z,18.50
2022-08-26T20:14:43.909Z,18.50
2022-08-26T20:17:12.484Z,18.50
2022-08-26T20:19:58.403Z,18.50
2022-08-26T20:22:28.140Z,18.60
2022-08-26T20:24:56.289Z,18.60
2022-08-26T20:27:27.692Z,18.70
2022-08-26T20:30:09.305Z,18.60
2022-08-26T20:32:38.381Z,18.70
2022-08-26T20:35:08.212Z,18.70
2022-08-26T20:37:38.550Z,18.70
2022-08-26T20:40:08.966Z,18.70
2022-08-26T20:42:37.563Z,18.90
2022-08-26T20:45:06.623Z,19.00
2022-08-26T20:47:35.192Z,19.10
2022-08-26T20:50:03.726Z,19.00
2022-08-26T20:52:32.233Z,19.00
2022-08-26T20:55:01.740Z,19.00
2022-08-26T20:57:29.843Z,19.00
2022-08-26T20:59:57.986Z,19.00
2022-08-26T21:02:26.144Z,19.00
2022-08-26T21:04:57.598Z,19.00
2022-08-26T21:07:26.304Z,19.00
2022-08-26T21:09:54.637Z,19.00
2022-08-26T21:12:24.060Z,19.00
2022-08-26T21:14:52.157Z,18.90
2022-08-26T21:17:20.262Z,18.90
2022-08-26T21:19:48.361Z,19.00
2022-08-26T21:22:16.600Z,18.90
2022-08-26T21:24:44.754Z,18.90
2022-08-26T21:27:13.068Z,18.90
2022-08-26T21:29:49.091Z,18.80
2022-08-26T21:32:20.276Z,18.80
2022-08-26T21:34:48.346Z,18.80
2022-08-26T21:37:17.068Z,18.80
2022-08-26T21:39:45.372Z,18.80
2022-08-26T21:42:13.833Z,18.70
2022-08-26T21:44:43.390Z,18.80
2022-08-26T21:47:15.988Z,18.80
2022-08-26T21:49:44.333Z,18.70
2022-08-26T21:52:12.796Z,18.70
2022-08-26T21:54:40.969Z,18.70
2022-08-26T21:57:20.057Z,18.80
2022-08-26T21:59:48.233Z,18.70
2022-08-26T22:02:19.475Z,18.70
2022-08-26T22:04:48.998Z,18.80
2022-08-26T22:07:19.018Z,18.70
2022-08-26T22:09:47.315Z,18.70
2022-08-26T22:12:18.052Z,18.60
2022-08-26T22:14:46.987Z,18.60
2022-08-26T22:17:16.525Z,18.50
2022-08-26T22:19:46.820Z,18.50
2022-08-26T22:22:15.470Z,18.40
2022-08-26T22:24:44.296Z,18.40
2022-08-26T22:27:12.965Z,18.40
2022-08-26T22:29:41.688Z,18.30
2022-08-26T22:32:11.168Z,18.30
2022-08-26T22:34:39.465Z,18.30
2022-08-26T22:37:09.285Z,18.40
2022-08-26T22:39:37.675Z,18.40
2022-08-26T22:42:05.976Z,18.30
2022-08-26T22:44:36.489Z,18.30
2022-08-26T22:47:05.054Z,18.30
2022-08-26T22:49:33.244Z,18.40
2022-08-26T22:52:04.373Z,18.30
2022-08-26T22:54:33.895Z,18.40
2022-08-26T22:57:02.330Z,18.40
2022-08-26T22:59:30.546Z,18.40
2022-08-26T23:01:58.668Z,18.40
2022-08-26T23:04:29.103Z,18.40
2022-08-26T23:07:03.157Z,18.40
2022-08-26T23:09:43.073Z,18.40
2022-08-26T23:12:23.789Z,18.30
2022-08-26T23:15:02.789Z,18.30
2022-08-26T23:17:46.114Z,18.30
2022-08-26T23:20:26.495Z,18.30
2022-08-26T23:23:03.542Z,18.30
2022-08-26T23:25:53.311Z,18.20
2022-08-26T23:28:30.787Z,18.20
2022-08-26T23:31:04.137Z,18.20
2022-08-26T23:33:48.943Z,18.20
2022-08-26T23:36:26.256Z,18.20
2022-08-26T23:38:58.052Z,18.10
2022-08-26T23:41:40.419Z,18.10
2022-08-26T23:44:09.205Z,18.10
2022-08-26T23:46:37.554Z,18.20
2022-08-26T23:49:05.885Z,18.20
2022-08-26T23:51:51.298Z,18.20
2022-08-26T23:54:19.920Z,18.20
2022-08-26T23:56:49.451Z,18.20
2022-08-26T23:59:17.627Z,18.20
